Time;durP1;ratioP1;P1;durP2;ratioP2;P2;SDS_P1;SDS_P2;PMS_P1;PMS_P2;Temp;Humidity;BMP_temperature;BMP_pressure;BME280_temperature;BME280_humidity;BME280_pressure;Samples;Min_cycle;Max_cycle;Signal;HPM_P1;HPM_P2
2022/06/19 00:02:26;;;;;;;15.47;5.00;;;;;;;21.12;62.99;95506.25;5030691;28;24420;-76
2022/06/19 00:04:56;;;;;;;21.00;5.40;;;;;;;21.11;63.84;95502.00;5030611;28;24949;-76
2022/06/19 00:07:23;;;;;;;20.40;5.10;;;;;;;21.13;62.97;95497.38;5030597;28;24478;-75
2022/06/19 00:09:50;;;;;;;18.13;5.38;;;;;;;21.10;63.82;95481.94;5030746;28;24432;-75
2022/06/19 00:12:17;;;;;;;19.15;5.28;;;;;;;21.13;63.64;95486.00;5030614;28;24424;-75
2022/06/19 00:14:44;;;;;;;13.18;4.85;;;;;;;21.12;63.88;95487.00;5030955;28;24798;-75
2022/06/19 00:17:10;;;;;;;12.45;5.25;;;;;;;21.12;64.52;95484.38;5030356;28;24447;-75
2022/06/19 00:19:37;;;;;;;17.67;5.10;;;;;;;20.99;65.17;95487.53;5030603;28;24466;-75
2022/06/19 00:22:06;;;;;;;14.00;4.65;;;;;;;21.10;64.09;95479.28;5037212;22;24534;-76
2022/06/19 00:24:33;;;;;;;16.80;5.80;;;;;;;21.01;64.29;95478.47;5010518;28;24432;-75
2022/06/19 00:26:59;;;;;;;16.05;5.15;;;;;;;21.08;64.63;95477.81;5010629;28;24416;-76
2022/06/19 00:29:27;;;;;;;19.00;5.10;;;;;;;21.10;64.62;95467.91;5010638;28;24428;-76
2022/06/19 00:31:54;;;;;;;20.58;5.15;;;;;;;21.10;65.30;95465.28;5010274;28;24519;-76
2022/06/19 00:34:21;;;;;;;18.50;4.57;;;;;;;21.13;64.25;95467.59;5012885;28;24528;-77
2022/06/19 00:36:49;;;;;;;13.23;5.40;;;;;;;21.06;65.05;95458.72;5014161;28;24423;-77
2022/06/19 00:39:18;;;;;;;21.17;4.90;;;;;;;21.02;65.19;95458.22;5014218;28;24922;-77
2022/06/19 00:41:45;;;;;;;28.50;5.32;;;;;;;20.98;65.33;95449.84;5014097;28;24420;-77
2022/06/19 00:44:14;;;;;;;19.92;5.53;;;;;;;20.84;65.89;95454.97;5014058;28;24992;-77
2022/06/19 00:46:47;;;;;;;16.25;4.93;;;;;;;20.77;66.57;95450.41;5013724;28;24446;-77
2022/06/19 00:49:17;;;;;;;21.17;5.25;;;;;;;20.74;66.62;95442.00;5014231;28;24416;-77
2022/06/19 00:51:44;;;;;;;11.70;4.53;;;;;;;20.78;65.81;95438.88;5013764;28;24475;-77
2022/06/19 00:54:14;;;;;;;14.90;5.15;;;;;;;20.82;65.97;95435.91;5014010;28;24424;-76
2022/06/19 00:56:43;;;;;;;13.38;5.07;;;;;;;20.85;65.97;95439.03;5013794;28;24782;-76
2022/06/19 00:59:11;;;;;;;11.20;4.43;;;;;;;20.88;65.72;95443.16;5013608;28;24847;-76
2022/06/19 01:01:38;;;;;;;15.20;4.82;;;;;;;20.84;65.64;95432.13;5013701;28;24428;-76
2022/06/19 01:04:12;;;;;;;15.93;4.72;;;;;;;20.82;66.11;95428.84;5013989;28;24452;-77
2022/06/19 01:06:38;;;;;;;15.32;4.63;;;;;;;20.81;65.99;95423.75;5013538;28;24428;-76
2022/06/19 01:09:05;;;;;;;11.60;4.38;;;;;;;20.79;66.46;95418.63;5013466;28;24857;-76
2022/06/19 01:11:36;;;;;;;17.27;4.78;;;;;;;20.80;66.21;95415.00;5013338;28;24830;-76
2022/06/19 01:14:04;;;;;;;14.98;4.75;;;;;;;20.76;66.19;95416.34;5013862;28;24447;-76
2022/06/19 01:16:31;;;;;;;14.98;4.75;;;;;;;20.74;66.70;95407.81;5013151;28;24981;-76
2022/06/19 01:18:59;;;;;;;12.90;4.83;;;;;;;20.70;66.30;95401.22;5013569;28;24417;-76
2022/06/19 01:21:43;;;;;;;17.27;4.88;;;;;;;20.75;66.08;95404.16;5013278;28;24468;-76
2022/06/19 01:24:22;;;;;;;16.13;5.30;;;;;;;20.62;65.99;95388.91;5013316;28;24427;-76
2022/06/19 01:26:53;;;;;;;16.73;4.68;;;;;;;20.61;65.55;95405.66;5013162;28;24420;-76
2022/06/19 01:29:19;;;;;;;18.77;5.47;;;;;;;20.53;65.38;95398.63;5013355;28;24476;-76
2022/06/19 01:31:50;;;;;;;17.10;5.13;;;;;;;20.50;66.45;95398.94;5013306;28;24423;-76
2022/06/19 01:34:32;;;;;;;12.53;4.13;;;;;;;20.60;66.24;95400.59;5013094;28;24894;-76
2022/06/19 01:37:04;;;;;;;13.68;4.72;;;;;;;20.62;66.66;95399.44;5012915;28;24937;-76
2022/06/19 01:39:36;;;;;;;12.23;4.65;;;;;;;20.57;66.89;95400.91;5013125;28;24435;-76
2022/06/19 01:42:05;;;;;;;13.00;4.25;;;;;;;20.50;66.88;95398.94;5013118;28;24965;-76
2022/06/19 01:44:33;;;;;;;14.88;4.45;;;;;;;20.47;66.87;95401.06;5012839;28;24428;-77
2022/06/19 01:47:00;;;;;;;10.95;4.00;;;;;;;20.49;66.78;95405.19;5012550;28;24436;-76
2022/06/19 01:49:29;;;;;;;12.90;5.00;;;;;;;20.45;66.81;95398.59;5013040;28;24794;-77
2022/06/19 01:51:56;;;;;;;13.70;5.50;;;;;;;20.46;66.76;95402.03;5012850;28;24428;-76
2022/06/19 01:54:26;;;;;;;12.40;4.75;;;;;;;20.27;67.28;95405.84;5012647;28;24824;-76
2022/06/19 01:56:55;;;;;;;21.77;5.50;;;;;;;20.26;67.21;95398.94;5012795;28;24427;-76
2022/06/19 01:59:25;;;;;;;13.18;5.20;;;;;;;20.29;67.19;95396.00;5012670;28;24452;-76
2022/06/19 02:01:53;;;;;;;19.85;5.22;;;;;;;20.33;67.19;95394.66;5012782;28;24436;-76
2022/06/19 02:04:23;;;;;;;13.10;4.82;;;;;;;20.29;66.91;95398.63;5012530;28;25046;-76
2022/06/19 02:06:54;;;;;;;22.63;5.53;;;;;;;20.29;66.73;95390.72;5012384;28;24429;-76
2022/06/19 02:09:23;;;;;;;12.95;4.60;;;;;;;20.18;66.63;95389.25;5012505;28;24564;-76
2022/06/19 02:11:50;;;;;;;17.60;4.78;;;;;;;20.20;66.29;95389.88;5012449;28;24507;-76
2022/06/19 02:14:19;;;;;;;13.07;4.45;;;;;;;20.31;66.06;95386.09;5012375;28;24417;-76
2022/06/19 02:16:49;;;;;;;13.90;4.68;;;;;;;20.27;65.42;95379.53;5012328;28;24436;-76
2022/06/19 02:19:16;;;;;;;14.15;4.85;;;;;;;19.95;66.93;95381.19;5012390;28;25007;-76
2022/06/19 02:21:45;;;;;;;16.58;4.88;;;;;;;19.80;68.32;95377.53;5012125;28;24435;-76
2022/06/19 02:24:16;;;;;;;13.65;4.15;;;;;;;19.94;68.01;95376.09;5012256;28;24431;-76
2022/06/19 02:26:44;;;;;;;13.38;4.43;;;;;;;19.88;69.07;95374.94;5011797;28;24859;-76
2022/06/19 02:29:15;;;;;;;23.67;4.95;;;;;;;19.78;69.39;95372.47;5012370;28;24845;-76
2022/06/19 02:31:42;;;;;;;13.38;4.75;;;;;;;19.78;69.01;95384.78;5012172;28;24439;-76
2022/06/19 02:34:30;;;;;;;14.52;4.93;;;;;;;19.85;69.38;95377.91;5012130;28;24416;-75
2022/06/19 02:36:58;;;;;;;12.48;4.28;;;;;;;19.81;69.23;95374.78;5019451;28;24421;-76
2022/06/19 02:39:34;;;;;;;14.27;4.80;;;;;;;19.82;68.94;95375.59;5029478;28;24502;-76
2022/06/19 02:42:06;;;;;;;16.17;4.50;;;;;;;19.83;68.19;95372.78;5031751;28;24456;-76
2022/06/19 02:44:35;;;;;;;14.52;4.78;;;;;;;19.73;67.63;95371.31;5031797;28;24460;-76
2022/06/19 02:47:02;;;;;;;23.52;5.30;;;;;;;19.68;68.20;95370.97;5025471;28;24431;-76
2022/06/19 02:49:29;;;;;;;18.75;4.70;;;;;;;19.82;67.87;95379.03;5023108;28;24498;-76
2022/06/19 02:51:56;;;;;;;13.18;4.10;;;;;;;19.87;68.14;95369.84;5031518;28;24427;-76
2022/06/19 02:54:22;;;;;;;18.13;5.25;;;;;;;19.85;67.21;95369.19;5031601;28;24825;-76
2022/06/19 02:56:49;;;;;;;16.05;5.40;;;;;;;19.80;67.29;95360.00;5030728;28;24511;-75
2022/06/19 02:59:15;;;;;;;12.32;4.60;;;;;;;19.87;67.40;95357.53;5024111;28;24988;-75
2022/06/19 03:01:42;;;;;;;22.55;5.00;;;;;;;19.82;67.63;95357.19;5014831;28;24439;-76
2022/06/19 03:04:17;;;;;;;25.80;4.70;;;;;;;19.62;68.57;95359.31;5031122;28;24416;-76
2022/06/19 03:06:45;;;;;;;13.15;4.90;;;;;;;19.66;68.42;95359.81;5030820;28;24427;-76
2022/06/19 03:09:12;;;;;;;20.67;5.15;;;;;;;19.53;68.83;95355.00;5030965;28;24444;-76
2022/06/19 03:11:39;;;;;;;18.20;5.35;;;;;;;19.43;68.80;95349.91;5030831;28;24427;-76
2022/06/19 03:14:06;;;;;;;16.45;4.78;;;;;;;19.49;68.80;95346.59;5030447;28;24859;-76
2022/06/19 03:16:32;;;;;;;16.58;4.38;;;;;;;19.67;68.69;95345.69;5029666;28;25038;-76
2022/06/19 03:18:59;;;;;;;15.15;5.13;;;;;;;19.72;70.28;95338.13;5029944;28;24470;-75
2022/06/19 03:21:26;;;;;;;16.27;5.13;;;;;;;19.54;71.72;95333.84;5029596;28;24519;-76
2022/06/19 03:23:53;;;;;;;12.80;4.90;;;;;;;19.22;73.19;95339.81;5031031;28;24494;-75
2022/06/19 03:26:20;;;;;;;15.95;4.85;;;;;;;18.92;75.27;95327.25;5030830;28;24423;-75
2022/06/19 03:28:46;;;;;;;17.70;5.03;;;;;;;18.86;75.55;95332.16;5030801;28;24451;-75
2022/06/19 03:31:14;;;;;;;16.35;4.93;;;;;;;18.93;74.72;95328.91;5030717;28;24885;-76
2022/06/19 03:33:41;;;;;;;13.80;4.95;;;;;;;18.92;74.83;95322.03;5030943;28;24415;-75
2022/06/19 03:36:07;;;;;;;20.07;5.20;;;;;;;18.82;75.80;95322.94;5030487;28;24430;-76
2022/06/19 03:38:34;;;;;;;15.00;4.68;;;;;;;18.91;74.77;95318.56;5017754;28;24447;-76
2022/06/19 03:41:01;;;;;;;14.45;4.88;;;;;;;18.89;74.52;95323.16;5010814;28;24443;-75
2022/06/19 03:43:28;;;;;;;14.20;4.50;;;;;;;19.04;73.77;95323.38;5010866;28;24427;-76
2022/06/19 03:45:58;;;;;;;11.73;4.07;;;;;;;19.16;73.15;95323.88;5010525;28;24463;-76
2022/06/19 03:48:25;;;;;;;12.82;4.60;;;;;;;19.25;73.11;95320.31;5010933;28;24440;-76
2022/06/19 03:50:52;;;;;;;18.27;4.85;;;;;;;19.29;72.86;95327.72;5010894;28;24989;-76
2022/06/19 03:53:19;;;;;;;19.20;5.10;;;;;;;19.30;72.56;95329.34;5010715;28;24420;-76
2022/06/19 03:55:47;;;;;;;14.18;4.45;;;;;;;19.31;73.11;95322.28;5010467;28;24462;-76
2022/06/19 03:58:15;;;;;;;13.05;4.15;;;;;;;19.34;72.19;95330.66;5010581;28;24466;-76
2022/06/19 04:00:41;;;;;;;11.93;4.90;;;;;;;19.29;72.64;95334.75;5010817;28;24432;-76
2022/06/19 04:03:08;;;;;;;12.23;4.20;;;;;;;19.27;72.23;95327.03;5010971;28;24416;-76
2022/06/19 04:05:35;;;;;;;11.45;4.90;;;;;;;19.31;72.28;95330.16;5010352;28;24439;-76
2022/06/19 04:08:01;;;;;;;14.25;4.53;;;;;;;19.38;72.55;95319.84;5010643;28;24424;-78
2022/06/19 04:10:28;;;;;;;13.40;4.17;;;;;;;19.42;72.89;95329.03;5014683;28;24961;-76
2022/06/19 04:12:54;;;;;;;14.27;4.40;;;;;;;19.38;72.69;95322.47;5014584;28;24427;-75
2022/06/19 04:15:23;;;;;;;14.18;4.53;;;;;;;19.28;72.65;95327.84;5014670;28;24417;-74
2022/06/19 04:17:49;;;;;;;12.13;4.18;;;;;;;19.22;73.05;95325.88;5014052;28;24443;-79
2022/06/19 04:20:16;;;;;;;12.90;4.90;;;;;;;19.33;73.17;95330.84;5014629;28;24424;-76
2022/06/19 04:22:42;;;;;;;10.85;3.95;;;;;;;19.39;73.57;95342.47;5014380;28;24439;-76
2022/06/19 04:25:13;;;;;;;10.43;4.13;;;;;;;19.45;73.03;95342.66;5014452;28;24427;-75
2022/06/19 04:27:40;;;;;;;9.45;4.35;;;;;;;19.54;71.74;95341.72;5014367;28;24774;-75
2022/06/19 04:30:07;;;;;;;13.93;4.32;;;;;;;19.67;71.37;95343.06;5014524;28;24444;-76
2022/06/19 04:32:35;;;;;;;12.10;4.45;;;;;;;19.67;71.00;95337.81;5014216;28;24514;-76
2022/06/19 04:35:01;;;;;;;21.67;4.82;;;;;;;19.39;72.01;95331.97;5014305;28;24474;-76
2022/06/19 04:37:28;;;;;;;13.77;4.97;;;;;;;19.33;71.92;95333.47;5014085;28;24429;-76
2022/06/19 04:39:54;;;;;;;13.93;4.38;;;;;;;19.46;71.34;95327.72;5014084;28;24425;-76
2022/06/19 04:42:21;;;;;;;13.15;4.95;;;;;;;19.52;71.14;95324.47;5014040;28;24969;-76
2022/06/19 04:44:47;;;;;;;10.20;4.40;;;;;;;19.60;70.80;95329.72;5014212;28;24423;-76
2022/06/19 04:47:14;;;;;;;16.30;5.13;;;;;;;19.66;70.32;95330.91;5013965;28;24474;-76
2022/06/19 04:49:41;;;;;;;13.57;4.78;;;;;;;19.68;69.56;95326.31;5014007;28;24798;-76
2022/06/19 04:52:08;;;;;;;18.95;5.13;;;;;;;19.63;70.85;95324.19;5013785;28;24424;-76
2022/06/19 04:54:34;;;;;;;14.30;4.28;;;;;;;19.58;71.16;95336.97;5014257;28;24929;-76
2022/06/19 04:57:00;;;;;;;17.33;4.88;;;;;;;19.63;70.29;95333.88;5014088;28;24478;-76
2022/06/19 04:59:27;;;;;;;21.33;5.38;;;;;;;19.52;70.65;95332.34;5013969;28;24417;-77
2022/06/19 05:01:54;;;;;;;15.05;4.95;;;;;;;19.50;70.92;95335.13;5013662;28;24512;-77
2022/06/19 05:04:20;;;;;;;13.70;4.68;;;;;;;19.81;69.17;95334.53;5013714;28;24420;-77
2022/06/19 05:06:48;;;;;;;15.70;4.55;;;;;;;19.97;68.10;95326.66;5013368;28;24992;-77
2022/06/19 05:09:14;;;;;;;15.98;4.78;;;;;;;20.05;67.63;95331.91;5013502;28;24451;-77
2022/06/19 05:11:41;;;;;;;14.00;4.57;;;;;;;20.20;67.21;95324.16;5014275;28;24508;-77
2022/06/19 05:14:07;;;;;;;14.37;4.50;;;;;;;20.36;66.91;95323.34;5014515;28;24439;-77
2022/06/19 05:16:34;;;;;;;11.23;4.22;;;;;;;20.50;65.88;95325.28;5014653;28;24416;-76
2022/06/19 05:19:03;;;;;;;15.93;4.88;;;;;;;20.60;65.60;95329.53;5014237;28;24419;-77
2022/06/19 05:21:29;;;;;;;14.20;4.40;;;;;;;20.69;65.60;95326.75;5014456;28;24438;-76
2022/06/19 05:23:57;;;;;;;15.30;4.35;;;;;;;20.81;64.96;95318.47;5014520;28;24428;-77
2022/06/19 05:26:26;;;;;;;15.18;4.90;;;;;;;20.86;65.58;95321.41;5014413;28;24969;-78
2022/06/19 05:28:55;;;;;;;13.20;4.78;;;;;;;20.90;65.49;95323.50;5014186;28;24448;-77
2022/06/19 05:31:21;;;;;;;12.63;4.65;;;;;;;20.97;65.37;95319.22;5013573;28;24980;-76
2022/06/19 05:33:48;;;;;;;17.08;5.18;;;;;;;20.97;65.40;95321.84;5013719;28;24879;-76
2022/06/19 05:36:16;;;;;;;17.02;4.95;;;;;;;20.96;65.30;95324.66;5012534;28;24807;-77
2022/06/19 05:38:42;;;;;;;16.63;4.63;;;;;;;20.97;65.92;95316.56;5013509;28;24865;-76
2022/06/19 05:41:10;;;;;;;16.45;5.13;;;;;;;20.96;65.95;95317.56;5017670;28;24474;-76
2022/06/19 05:43:37;;;;;;;12.35;4.70;;;;;;;21.11;65.18;95316.84;5013908;28;24404;-76
2022/06/19 05:46:06;;;;;;;15.27;4.37;;;;;;;21.13;65.43;95320.94;5013554;28;24440;-76
2022/06/19 05:48:34;;;;;;;14.90;4.68;;;;;;;21.23;64.31;95324.19;5013477;28;24829;-76
2022/06/19 05:51:03;;;;;;;16.17;4.90;;;;;;;21.42;63.79;95327.41;5013935;28;24435;-76
2022/06/19 05:53:32;;;;;;;12.20;4.77;;;;;;;21.67;62.52;95326.25;5013374;28;24429;-77
2022/06/19 05:55:59;;;;;;;19.42;5.03;;;;;;;21.86;62.23;95324.97;5012566;28;25036;-76
2022/06/19 05:58:27;;;;;;;17.17;4.50;;;;;;;22.01;61.17;95332.09;5011072;28;24530;-76
2022/06/19 06:00:54;;;;;;;17.20;5.05;;;;;;;22.20;60.38;95326.34;5009261;28;24424;-76
2022/06/19 06:03:22;;;;;;;20.87;4.70;;;;;;;22.32;60.07;95330.22;5010456;28;24443;-75
2022/06/19 06:05:49;;;;;;;16.33;5.13;;;;;;;22.37;59.47;95335.78;5015112;28;24836;-76
2022/06/19 06:08:16;;;;;;;14.65;4.43;;;;;;;22.57;59.13;95322.84;5009894;28;24435;-76
2022/06/19 06:10:43;;;;;;;14.45;5.05;;;;;;;22.86;58.05;95322.03;5012159;28;24452;-77
2022/06/19 06:13:09;;;;;;;24.40;5.37;;;;;;;22.93;58.02;95315.06;5011884;28;24974;-76
2022/06/19 06:15:37;;;;;;;12.40;4.60;;;;;;;23.21;57.39;95322.28;5011811;28;24428;-76
2022/06/19 06:18:04;;;;;;;13.48;4.50;;;;;;;23.48;56.96;95323.44;5012064;28;24435;-77
2022/06/19 06:20:31;;;;;;;15.73;5.05;;;;;;;23.63;56.21;95329.47;5011736;28;25017;-77
2022/06/19 06:22:58;;;;;;;17.92;5.00;;;;;;;23.69;55.52;95320.00;5035267;22;24581;-76
2022/06/19 06:25:24;;;;;;;18.55;5.30;;;;;;;23.74;56.50;95314.97;5050697;28;24435;-76
2022/06/19 06:27:51;;;;;;;13.80;4.90;;;;;;;23.94;55.58;95324.91;5049144;28;24431;-76
2022/06/19 06:30:17;;;;;;;13.40;5.35;;;;;;;24.02;55.68;95314.19;5048196;28;24451;-76
2022/06/19 06:32:45;;;;;;;16.65;4.90;;;;;;;23.99;55.83;95325.16;5041501;28;24435;-76
2022/06/19 06:35:12;;;;;;;18.20;5.07;;;;;;;23.97;56.68;95325.34;5029143;28;24439;-76
2022/06/19 06:37:38;;;;;;;11.18;4.32;;;;;;;23.88;56.93;95327.31;5030938;28;24438;-76
2022/06/19 06:40:06;;;;;;;25.20;4.90;;;;;;;23.74;57.65;95322.09;5030917;28;24482;-76
2022/06/19 06:42:33;;;;;;;14.80;4.63;;;;;;;23.81;57.33;95329.09;5030723;28;25042;-76
2022/06/19 06:44:59;;;;;;;13.13;5.38;;;;;;;23.99;55.78;95320.72;5030585;28;24439;-76
2022/06/19 06:47:26;;;;;;;23.20;4.85;;;;;;;24.24;55.69;95323.75;5030645;28;24443;-76
2022/06/19 06:49:54;;;;;;;16.15;5.30;;;;;;;24.68;54.40;95322.66;5030769;28;24452;-77
2022/06/19 06:52:20;;;;;;;15.80;4.43;;;;;;;25.02;55.29;95313.88;5030571;28;24431;-76
2022/06/19 06:54:47;;;;;;;13.32;5.03;;;;;;;25.38;53.23;95319.97;5030614;28;24452;-76
2022/06/19 06:57:14;;;;;;;13.10;4.68;;;;;;;25.76;52.88;95312.28;5026528;28;24443;-75
2022/06/19 06:59:40;;;;;;;15.73;5.18;;;;;;;26.04;51.84;95317.47;5026515;28;24435;-75
2022/06/19 07:02:07;;;;;;;19.27;4.45;;;;;;;26.35;52.14;95319.50;5028935;28;24427;-75
2022/06/19 07:04:34;;;;;;;11.85;4.80;;;;;;;26.62;51.44;95312.34;5030235;28;24995;-75
2022/06/19 07:07:02;;;;;;;17.10;4.85;;;;;;;26.78;49.96;95324.38;5030391;28;24459;-75
2022/06/19 07:09:28;;;;;;;14.68;4.75;;;;;;;27.01;50.12;95315.94;5030451;28;24807;-75
2022/06/19 07:11:55;;;;;;;18.40;6.00;;;;;;;27.12;48.94;95307.34;5030636;28;24797;-75
2022/06/19 07:14:21;;;;;;;20.75;5.97;;;;;;;27.14;48.74;95307.94;5030046;28;24527;-75
2022/06/19 07:16:47;;;;;;;19.52;5.70;;;;;;;27.26;49.05;95305.47;5030184;28;24435;-75
2022/06/19 07:19:14;;;;;;;17.33;4.80;;;;;;;27.42;48.96;95309.47;5031075;28;24439;-75
2022/06/19 07:21:41;;;;;;;13.57;5.13;;;;;;;27.63;47.87;95314.47;5030150;28;24432;-75
2022/06/19 07:24:08;;;;;;;16.35;5.35;;;;;;;27.79;48.55;95309.69;5030126;28;24490;-75
2022/06/19 07:26:35;;;;;;;11.63;4.50;;;;;;;27.97;48.31;95318.59;5029501;28;24434;-75
2022/06/19 07:29:02;;;;;;;11.80;5.47;;;;;;;28.10;47.60;95317.66;5030038;28;24440;-75
2022/06/19 07:31:29;;;;;;;16.50;5.97;;;;;;;28.08;47.08;95316.25;5027418;28;24463;-75
2022/06/19 07:33:55;;;;;;;15.77;5.30;;;;;;;28.35;47.71;95319.50;5030091;28;24440;-75
2022/06/19 07:36:23;;;;;;;12.38;5.53;;;;;;;28.76;44.02;95315.47;5029633;28;25000;-75
2022/06/19 07:38:50;;;;;;;23.23;6.90;;;;;;;29.07;41.12;95311.88;5027292;28;25000;-75
2022/06/19 07:41:18;;;;;;;17.70;6.90;;;;;;;29.36;39.72;95311.13;5029752;28;24507;-75
2022/06/19 07:43:45;;;;;;;15.32;6.30;;;;;;;29.53;39.01;95314.00;5029522;28;24438;-75
2022/06/19 07:46:12;;;;;;;14.52;6.95;;;;;;;29.69;37.12;95317.91;5029300;28;25057;-75
2022/06/19 07:51:25;;;;;;;21.75;6.57;;;;;;;29.94;34.80;95322.28;5030009;28;24419;-75
2022/06/19 07:53:51;;;;;;;19.25;6.72;;;;;;;30.03;35.75;95324.38;5030536;28;24489;-75
2022/06/19 07:56:19;;;;;;;15.40;6.45;;;;;;;30.06;34.95;95320.44;5030502;28;24424;-75
2022/06/19 07:58:46;;;;;;;17.75;7.20;;;;;;;30.26;35.77;95330.84;5029830;28;24515;-75
2022/06/19 08:01:13;;;;;;;15.52;6.18;;;;;;;30.51;34.97;95322.63;5029692;28;24961;-75
2022/06/19 08:03:39;;;;;;;23.25;6.45;;;;;;;30.57;32.06;95311.03;5027418;28;24436;-75
2022/06/19 08:06:06;;;;;;;12.85;5.60;;;;;;;30.57;31.88;95324.38;5029383;28;24478;-75
2022/06/19 08:08:33;;;;;;;13.52;5.07;;;;;;;30.57;31.61;95319.03;5029370;28;24486;-75
2022/06/19 08:11:00;;;;;;;13.02;5.72;;;;;;;30.67;31.65;95327.28;5029805;28;24566;-75
2022/06/19 08:13:31;;;;;;;8.98;5.10;;;;;;;30.82;32.34;95318.84;5029392;28;24436;-75
2022/06/19 08:16:00;;;;;;;14.10;5.05;;;;;;;31.10;31.68;95310.88;5026473;28;24439;-75
2022/06/19 08:18:27;;;;;;;10.07;4.67;;;;;;;31.23;29.56;95320.50;5029499;28;24512;-75
2022/06/19 08:20:53;;;;;;;25.77;4.65;;;;;;;31.12;28.94;95307.16;5029415;28;24431;-75
2022/06/19 08:23:21;;;;;;;11.02;4.78;;;;;;;31.07;28.62;95322.06;5029037;28;24487;-75
2022/06/19 08:25:48;;;;;;;13.13;4.80;;;;;;;31.22;28.41;95310.88;5028991;28;24841;-75
2022/06/19 08:28:17;;;;;;;15.68;4.40;;;;;;;31.08;28.21;95307.63;5029282;28;24435;-75
2022/06/19 08:30:45;;;;;;;10.18;3.90;;;;;;;31.14;28.39;95315.75;5028794;28;24459;-75
2022/06/19 08:33:12;;;;;;;17.63;5.05;;;;;;;31.29;27.86;95306.16;5028769;28;24447;-75
2022/06/19 08:35:42;;;;;;;12.10;4.38;;;;;;;31.26;27.38;95309.34;5028840;28;24444;-75
2022/06/19 08:38:12;;;;;;;11.88;4.57;;;;;;;31.24;27.62;95310.63;5029006;28;24428;-76
2022/06/19 08:40:54;;;;;;;10.18;4.13;;;;;;;31.28;27.13;95306.41;5026578;28;24428;-75
2022/06/19 08:43:38;;;;;;;11.88;4.47;;;;;;;31.40;27.20;95325.13;5027768;28;24501;-75
2022/06/19 08:46:20;;;;;;;12.00;4.43;;;;;;;31.54;27.31;95310.44;5030050;28;24423;-75
2022/06/19 08:49:13;;;;;;;8.35;4.15;;;;;;;31.50;27.48;95312.78;5030350;28;24976;-75
2022/06/19 08:51:52;;;;;;;11.30;4.40;;;;;;;31.53;27.02;95317.66;5019927;28;24456;-75
2022/06/19 08:54:30;;;;;;;10.00;3.87;;;;;;;31.62;26.55;95327.97;5030946;28;24443;-75
2022/06/19 08:57:05;;;;;;;12.82;4.30;;;;;;;31.60;26.70;95330.09;5032944;28;24427;-75
2022/06/19 08:59:42;;;;;;;9.40;3.80;;;;;;;31.68;26.23;95319.00;5030328;28;24439;-75
2022/06/19 09:02:20;;;;;;;7.75;3.90;;;;;;;31.70;25.43;95319.56;5031270;28;24482;-75
2022/06/19 09:07:48;;;;;;;9.93;4.43;;;;;;;31.78;25.31;95317.31;5031901;28;24473;-75
2022/06/19 09:10:30;;;;;;;11.85;4.10;;;;;;;32.01;26.22;95313.72;5030094;28;24459;-76
2022/06/19 09:13:19;;;;;;;11.90;4.20;;;;;;;32.09;25.86;95317.88;5030300;28;24440;-75
2022/06/19 09:15:50;;;;;;;11.40;3.83;;;;;;;32.18;25.39;95323.66;5031336;28;24443;-75
2022/06/19 09:18:30;;;;;;;12.10;4.03;;;;;;;32.30;25.72;95321.72;5032312;28;24436;-75
2022/06/19 09:21:06;;;;;;;11.63;4.13;;;;;;;32.44;25.52;95319.53;5030135;28;24448;-76
2022/06/19 09:23:46;;;;;;;8.07;4.32;;;;;;;32.34;24.96;95316.69;5032018;28;24896;-75
2022/06/19 09:26:18;;;;;;;9.73;3.73;;;;;;;32.18;25.20;95312.94;5031885;28;24424;-76
2022/06/19 09:28:51;;;;;;;7.68;3.67;;;;;;;32.25;25.52;95317.06;5032542;28;24461;-76
2022/06/19 09:31:23;;;;;;;17.92;4.93;;;;;;;32.35;24.96;95320.97;5033500;28;24435;-76
2022/06/19 09:33:57;;;;;;;9.90;3.88;;;;;;;32.56;25.05;95320.28;5033330;28;24439;-76
2022/06/19 09:36:29;;;;;;;14.85;4.38;;;;;;;32.24;25.42;95330.72;5033006;28;24968;-75
2022/06/19 09:39:01;;;;;;;7.72;3.70;;;;;;;32.63;26.63;95307.53;5033251;28;24803;-76
2022/06/19 09:41:35;;;;;;;13.57;3.88;;;;;;;32.93;24.96;95307.13;5033145;28;24416;-76
2022/06/19 09:44:08;;;;;;;8.63;4.03;;;;;;;33.11;24.11;95303.34;5032965;28;24937;-76
2022/06/19 09:46:42;;;;;;;9.70;4.00;;;;;;;32.97;23.20;95305.63;5032303;28;24973;-76
2022/06/19 09:49:16;;;;;;;13.23;4.30;;;;;;;32.79;23.33;95307.75;5033119;28;24447;-76
2022/06/19 09:51:48;;;;;;;12.60;3.95;;;;;;;32.94;23.83;95310.66;5033090;28;24489;-76
2022/06/19 09:54:18;;;;;;;15.32;3.97;;;;;;;32.88;23.20;95307.06;5033031;28;24431;-76
2022/06/19 09:56:50;;;;;;;10.57;3.90;;;;;;;32.91;24.21;95321.84;5032557;28;24424;-76
2022/06/19 09:59:22;;;;;;;12.70;4.40;;;;;;;33.20;22.98;95317.16;5033103;28;24431;-77
2022/06/19 10:01:56;;;;;;;11.90;3.67;;;;;;;33.07;23.41;95314.84;5032749;28;24968;-76
2022/06/19 10:04:33;;;;;;;10.27;4.05;;;;;;;33.02;23.55;95310.22;5032589;28;24964;-76
2022/06/19 10:07:03;;;;;;;9.40;3.97;;;;;;;32.76;23.72;95306.34;5032619;28;24422;-76
2022/06/19 10:09:35;;;;;;;16.00;4.40;;;;;;;33.15;23.59;95317.09;5032836;28;24416;-76
2022/06/19 10:12:04;;;;;;;12.60;4.03;;;;;;;33.22;24.46;95317.72;5032518;28;24451;-76
2022/06/19 10:14:36;;;;;;;11.82;4.35;;;;;;;33.07;24.32;95304.09;5032769;28;24439;-76
2022/06/19 10:17:05;;;;;;;11.82;4.28;;;;;;;33.42;23.55;95306.44;5032446;28;24439;-76
2022/06/19 10:19:41;;;;;;;9.70;4.20;;;;;;;33.17;23.88;95301.56;5032279;28;24424;-76
2022/06/19 10:22:25;;;;;;;12.63;4.20;;;;;;;33.47;22.88;95298.44;5032726;28;24422;-76
2022/06/19 10:25:08;;;;;;;9.67;4.27;;;;;;;33.61;22.88;95301.56;5032387;28;24490;-76
2022/06/19 10:27:46;;;;;;;13.82;4.45;;;;;;;33.86;23.05;95304.50;5031994;28;24510;-76
2022/06/19 10:30:18;;;;;;;10.20;3.95;;;;;;;34.14;22.30;95316.06;5023065;28;24427;-76
2022/06/19 10:33:06;;;;;;;8.33;3.87;;;;;;;34.22;22.87;95304.03;5031186;28;24535;-76
2022/06/19 10:35:50;;;;;;;13.43;4.47;;;;;;;33.79;23.00;95301.22;5030104;28;24470;-76
2022/06/19 10:38:33;;;;;;;13.88;4.15;;;;;;;33.80;23.08;95296.66;5028026;28;24432;-76
2022/06/19 10:41:05;;;;;;;12.15;4.35;;;;;;;33.81;22.69;95295.59;5028688;28;24435;-76
2022/06/19 10:43:46;;;;;;;10.13;3.92;;;;;;;34.02;23.08;95291.25;5030859;28;24436;-76
2022/06/19 10:46:16;;;;;;;15.25;4.65;;;;;;;33.85;23.30;95289.44;5030330;28;24430;-76
2022/06/19 10:48:54;;;;;;;22.33;4.38;;;;;;;33.73;23.07;95296.84;5030587;28;24532;-76
2022/06/19 10:51:36;;;;;;;16.05;4.20;;;;;;;33.99;22.74;95300.63;5028612;28;24454;-76
2022/06/19 10:54:28;;;;;;;12.32;4.43;;;;;;;33.87;23.53;95295.38;5028652;28;24443;-76
2022/06/19 10:57:02;;;;;;;10.98;5.05;;;;;;;33.09;23.58;95275.16;5029503;28;24989;-76
2022/06/19 10:59:29;;;;;;;12.10;4.30;;;;;;;33.46;23.95;95278.84;5030616;28;24438;-76
2022/06/19 11:04:55;;;;;;;21.90;4.93;;;;;;;33.33;24.09;95289.94;5029964;28;24877;-76
2022/06/19 11:07:27;;;;;;;13.93;4.55;;;;;;;33.63;24.12;95291.38;5023619;28;24490;-76
2022/06/19 11:09:55;;;;;;;15.55;5.20;;;;;;;33.71;24.16;95299.81;5030056;28;24431;-76
2022/06/19 11:12:29;;;;;;;11.20;4.90;;;;;;;33.55;24.54;95294.50;5029939;28;24455;-76
2022/06/19 11:14:58;;;;;;;13.37;5.53;;;;;;;33.80;24.33;95288.59;5030157;28;24468;-76
2022/06/19 11:17:33;;;;;;;14.87;6.17;;;;;;;33.83;24.61;95277.34;5029579;28;24427;-76
2022/06/19 11:20:21;;;;;;;11.88;5.43;;;;;;;34.14;24.42;95286.50;5027727;28;24436;-76
2022/06/19 11:22:50;;;;;;;10.77;5.10;;;;;;;34.17;23.48;95265.31;5028862;28;24436;-76
2022/06/19 11:25:37;;;;;;;12.75;4.82;;;;;;;34.28;23.70;95278.84;5027353;28;24424;-75
2022/06/19 11:28:11;;;;;;;11.38;5.32;;;;;;;34.35;23.87;95280.22;5028357;28;24435;-76
2022/06/19 11:30:41;;;;;;;16.77;5.32;;;;;;;34.15;23.93;95280.06;5027265;28;24991;-75
2022/06/19 11:33:11;;;;;;;14.20;4.55;;;;;;;34.16;25.11;95279.00;5029805;28;24961;-75
2022/06/19 11:35:41;;;;;;;11.77;5.00;;;;;;;34.27;24.73;95280.72;5027099;28;24454;-76
2022/06/19 11:38:10;;;;;;;13.70;5.07;;;;;;;34.19;24.43;95278.50;5030238;28;24431;-76
2022/06/19 11:40:39;;;;;;;14.73;4.85;;;;;;;34.04;24.15;95272.97;5027566;28;24463;-76
2022/06/19 11:43:21;;;;;;;13.68;4.93;;;;;;;34.20;24.00;95280.13;5029728;28;24849;-76
2022/06/19 11:45:58;;;;;;;7.72;4.00;;;;;;;34.19;23.64;95271.25;5028684;28;24427;-76
2022/06/19 11:48:26;;;;;;;19.20;4.80;;;;;;;33.29;23.14;95270.03;5028258;28;24529;-76